createdAt,value
2022-08-25T00:00:21.701Z,98376.72
2022-08-25T00:02:54.936Z,98386.91
2022-08-25T00:05:26.163Z,98382.66
2022-08-25T00:07:54.785Z,98376.25
2022-08-25T00:10:21.686Z,98374.66
2022-08-25T00:12:55.304Z,98376.03
2022-08-25T00:15:23.881Z,98376.09
2022-08-25T00:17:51.574Z,98371.03
2022-08-25T00:20:18.378Z,98367.78
2022-08-25T00:22:45.321Z,98367.84
2022-08-25T00:25:12.752Z,98366.69
2022-08-25T00:27:39.505Z,98363.91
2022-08-25T00:30:07.657Z,98372.63
2022-08-25T00:32:34.317Z,98361.38
2022-08-25T00:35:01.161Z,98353.72
2022-08-25T00:37:27.987Z,98361.75
2022-08-25T00:39:57.012Z,98363.38
2022-08-25T00:42:26.307Z,98361.00
2022-08-25T00:44:53.804Z,98355.06
2022-08-25T00:47:20.615Z,98366.56
2022-08-25T00:49:54.184Z,98357.81
2022-08-25T00:52:27.963Z,98365.59
2022-08-25T00:55:08.309Z,98362.03
2022-08-25T00:57:45.888Z,98367.97
2022-08-25T01:00:41.052Z,98366.22
2022-08-25T01:03:07.902Z,98359.25
2022-08-25T01:05:35.735Z,98370.88
2022-08-25T01:08:06.281Z,98359.06
2022-08-25T01:10:37.298Z,98366.53
2022-08-25T01:13:16.718Z,98365.31
2022-08-25T01:15:48.871Z,98354.19
2022-08-25T01:18:16.315Z,98350.97
2022-08-25T01:20:43.721Z,98358.25
2022-08-25T01:23:10.693Z,98352.44
2022-08-25T01:26:07.643Z,98357.75
2022-08-25T01:28:36.050Z,98349.78
2022-08-25T01:31:05.047Z,98354.53
2022-08-25T01:33:51.226Z,98351.34
2022-08-25T01:36:20.269Z,98351.28
2022-08-25T01:38:46.982Z,98345.44
2022-08-25T01:41:40.217Z,98346.44
2022-08-25T01:44:12.413Z,98343.31
2022-08-25T01:46:43.567Z,98331.47
2022-08-25T01:49:10.633Z,98333.97
2022-08-25T01:52:11.053Z,98344.78
2022-08-25T01:54:38.226Z,98342.50
2022-08-25T01:57:05.471Z,98338.97
2022-08-25T01:59:32.312Z,98334.31
2022-08-25T02:02:00.176Z,98338.91
2022-08-25T02:04:32.059Z,98345.69
2022-08-25T02:07:01.749Z,98351.16
2022-08-25T02:09:29.507Z,98349.13
2022-08-25T02:11:59.115Z,98345.09
2022-08-25T02:14:26.203Z,98350.50
2022-08-25T02:16:54.852Z,98351.03
2022-08-25T02:19:24.623Z,98348.56
2022-08-25T02:21:51.957Z,98355.28
2022-08-25T02:24:18.824Z,98343.56
2022-08-25T02:26:46.051Z,98351.03
2022-08-25T02:29:13.102Z,98338.28
2022-08-25T02:31:40.509Z,98340.75
2022-08-25T02:34:08.713Z,98329.41
2022-08-25T02:36:38.073Z,98332.78
2022-08-25T02:39:09.944Z,98338.72
2022-08-25T02:41:37.041Z,98325.88
2022-08-25T02:44:06.581Z,98324.41
2022-08-25T02:46:34.214Z,98327.22
2022-08-25T02:49:01.455Z,98316.53
2022-08-25T02:51:30.276Z,98323.22
2022-08-25T02:53:59.224Z,98316.56
2022-08-25T02:56:26.302Z,98317.84
2022-08-25T02:58:53.309Z,98318.56
2022-08-25T03:01:20.923Z,98307.22
2022-08-25T03:03:52.357Z,98316.47
2022-08-25T03:06:25.462Z,98325.41
2022-08-25T03:08:53.355Z,98318.00
2022-08-25T03:11:21.053Z,98314.00
2022-08-25T03:13:51.032Z,98317.50
2022-08-25T03:16:19.235Z,98318.97
2022-08-25T03:18:46.574Z,98321.03
2022-08-25T03:21:15.775Z,98316.41
2022-08-25T03:23:44.381Z,98314.81
2022-08-25T03:26:30.010Z,98315.59
2022-08-25T03:28:57.315Z,98313.34
2022-08-25T03:31:27.701Z,98307.50
2022-08-25T03:33:55.155Z,98308.81
2022-08-25T03:36:22.028Z,98322.38
2022-08-25T03:38:48.760Z,98311.22
2022-08-25T03:41:28.080Z,98325.94
2022-08-25T03:43:57.010Z,98308.22
2022-08-25T03:46:38.004Z,98311.13
2022-08-25T03:49:08.232Z,98322.22
2022-08-25T03:51:40.447Z,98312.22
2022-08-25T03:54:09.324Z,98318.91
2022-08-25T03:56:36.421Z,98313.94
2022-08-25T03:59:03.653Z,98311.69
2022-08-25T04:01:30.420Z,98305.72
2022-08-25T04:03:57.082Z,98308.44
2022-08-25T04:06:23.649Z,98307.16
2022-08-25T04:08:52.642Z,98305.22
2022-08-25T04:11:22.778Z,98302.34
2022-08-25T04:13:51.896Z,98295.13
2022-08-25T04:16:29.705Z,98292.72
2022-08-25T04:18:58.767Z,98291.34
2022-08-25T04:21:26.341Z,98285.00
2022-08-25T04:23:55.193Z,98304.69
2022-08-25T04:26:33.275Z,98307.84
2022-08-25T04:29:03.376Z,98298.94
2022-08-25T04:31:31.954Z,98305.84
2022-08-25T04:34:02.391Z,98304.22
2022-08-25T04:36:29.954Z,98302.81
2022-08-25T04:38:56.705Z,98303.13
2022-08-25T04:41:25.363Z,98314.31
2022-08-25T04:43:53.221Z,98312.31
2022-08-25T04:46:25.108Z,98316.25
2022-08-25T04:48:53.917Z,98319.91
2022-08-25T04:51:27.696Z,98322.91
2022-08-25T04:53:54.332Z,98310.53
2022-08-25T04:56:26.214Z,98310.72
2022-08-25T04:58:55.671Z,98308.56
2022-08-25T05:01:25.840Z,98317.06
2022-08-25T05:04:00.616Z,98333.34
2022-08-25T05:06:28.893Z,98320.78
2022-08-25T05:08:57.782Z,98326.19
2022-08-25T05:11:26.383Z,98317.63
2022-08-25T05:13:56.988Z,98323.13
2022-08-25T05:16:26.735Z,98326.22
2022-08-25T05:18:54.612Z,98318.53
2022-08-25T05:21:27.688Z,98307.22
2022-08-25T05:23:59.994Z,98300.13
2022-08-25T05:26:30.803Z,98297.06
2022-08-25T05:28:58.960Z,98301.94
2022-08-25T05:31:26.977Z,98300.22
2022-08-25T05:33:55.205Z,98303.28
2022-08-25T05:36:24.968Z,98298.22
2022-08-25T05:38:51.812Z,98296.44
2022-08-25T05:41:25.375Z,98298.19
2022-08-25T05:43:52.145Z,98298.13
2022-08-25T05:46:21.239Z,98299.63
2022-08-25T05:48:49.926Z,98309.13
2022-08-25T05:51:17.319Z,98300.47
2022-08-25T05:53:48.593Z,98305.88
2022-08-25T05:56:15.844Z,98310.19
2022-08-25T05:58:44.821Z,98297.41
2022-08-25T06:01:43.459Z,98307.72
2022-08-25T06:04:12.158Z,98296.47
2022-08-25T06:06:39.606Z,98298.78
2022-08-25T06:09:09.426Z,98304.75
2022-08-25T06:11:41.822Z,98299.22
2022-08-25T06:14:09.825Z,98298.22
2022-08-25T06:16:38.959Z,98295.66
2022-08-25T06:19:08.631Z,98298.47
2022-08-25T06:21:37.398Z,98288.38
2022-08-25T06:24:04.833Z,98302.94
2022-08-25T06:26:31.772Z,98286.97
2022-08-25T06:28:58.445Z,98292.66
2022-08-25T06:31:25.152Z,98293.97
2022-08-25T06:33:52.858Z,98296.28
2022-08-25T06:36:20.537Z,98309.56
2022-08-25T06:38:48.626Z,98295.88
2022-08-25T06:41:16.604Z,98293.59
2022-08-25T06:43:48.147Z,98290.31
2022-08-25T06:46:21.448Z,98278.56
2022-08-25T06:48:49.801Z,98285.56
2022-08-25T06:51:20.298Z,98282.97
2022-08-25T06:53:49.632Z,98285.88
2022-08-25T06:56:19.501Z,98286.69
2022-08-25T06:58:47.961Z,98289.88
2022-08-25T07:01:27.107Z,98286.16
2022-08-25T07:03:58.090Z,98277.41
2022-08-25T07:06:26.650Z,98281.72
2022-08-25T07:08:53.897Z,98279.34
2022-08-25T07:11:21.469Z,98267.63
2022-08-25T07:13:49.411Z,98272.97
2022-08-25T07:16:18.741Z,98264.41
2022-08-25T07:18:47.168Z,98268.13
2022-08-25T07:21:15.565Z,98269.13
2022-08-25T07:23:43.081Z,98249.38
2022-08-25T07:26:38.533Z,98259.69
2022-08-25T07:29:19.694Z,98240.66
2022-08-25T07:31:46.753Z,98250.38
2022-08-25T07:34:34.067Z,98248.69
2022-08-25T07:37:05.802Z,98258.97
2022-08-25T07:39:34.368Z,98266.66
2022-08-25T07:42:02.254Z,98246.56
2022-08-25T07:44:29.214Z,98265.13
2022-08-25T07:46:56.753Z,98250.19
2022-08-25T07:49:26.630Z,98264.03
2022-08-25T07:52:05.079Z,98272.16
2022-08-25T07:54:37.656Z,98257.47
2022-08-25T07:57:09.980Z,98267.38
2022-08-25T07:59:42.356Z,98259.59
2022-08-25T08:02:17.973Z,98259.81
2022-08-25T08:04:48.745Z,98270.97
2022-08-25T08:07:17.846Z,98267.31
2022-08-25T08:09:44.819Z,98262.59
2022-08-25T08:12:15.196Z,98264.06
2022-08-25T08:14:44.900Z,98255.84
2022-08-25T08:17:13.599Z,98261.66
2022-08-25T08:19:44.814Z,98271.56
2022-08-25T08:22:15.615Z,98253.25
2022-08-25T08:24:54.476Z,98258.25
2022-08-25T08:27:23.111Z,98252.63
2022-08-25T08:29:50.143Z,98253.47
2022-08-25T08:32:17.970Z,98244.38
2022-08-25T08:34:47.056Z,98247.28
2022-08-25T08:37:18.600Z,98238.84
2022-08-25T08:39:48.079Z,98242.22
2022-08-25T08:42:43.014Z,98253.19
2022-08-25T08:45:28.619Z,98249.72
2022-08-25T08:48:43.159Z,98242.44
2022-08-25T08:51:33.187Z,98238.97
2022-08-25T08:54:18.540Z,98233.13
2022-08-25T08:56:50.535Z,98225.63
2022-08-25T08:59:30.306Z,98218.56
2022-08-25T09:02:04.190Z,98225.38
2022-08-25T09:04:57.928Z,98228.03
2022-08-25T09:07:42.332Z,98235.78
2022-08-25T09:10:12.333Z,98237.81
2022-08-25T09:13:11.890Z,98232.63
2022-08-25T09:16:11.208Z,98247.50
2022-08-25T09:19:23.885Z,98247.19
2022-08-25T09:22:35.053Z,98232.25
2022-08-25T09:25:18.715Z,98231.69
2022-08-25T09:28:09.476Z,98239.38
2022-08-25T09:30:57.858Z,98234.16
2022-08-25T09:33:27.592Z,98227.06
2022-08-25T09:35:57.296Z,98230.25
2022-08-25T09:38:26.246Z,98225.88
2022-08-25T09:41:00.909Z,98219.75
2022-08-25T09:43:28.228Z,98217.19
2022-08-25T09:46:23.316Z,98220.53
2022-08-25T09:49:11.737Z,98213.41
2022-08-25T09:51:42.775Z,98215.28
2022-08-25T09:54:12.825Z,98210.94
2022-08-25T09:57:00.553Z,98207.03
2022-08-25T09:59:37.015Z,98197.47
2022-08-25T10:02:27.101Z,98193.66
2022-08-25T10:04:54.923Z,98193.78
2022-08-25T10:07:51.784Z,98183.75
2022-08-25T10:10:33.895Z,98187.09
2022-08-25T10:13:15.545Z,98173.28
2022-08-25T10:16:20.538Z,98171.03
2022-08-25T10:19:08.388Z,98175.38
2022-08-25T10:21:38.736Z,98164.22
2022-08-25T10:24:09.578Z,98172.44
2022-08-25T10:26:44.039Z,98159.44
2022-08-25T10:29:42.732Z,98151.78
2022-08-25T10:32:16.867Z,98163.88
2022-08-25T10:34:55.441Z,98159.47
2022-08-25T10:38:03.991Z,98154.66
2022-08-25T10:40:49.622Z,98141.13
2022-08-25T10:43:49.918Z,98132.34
2022-08-25T10:46:42.820Z,98141.00
2022-08-25T10:49:25.432Z,98121.34
2022-08-25T10:52:37.721Z,98126.00
2022-08-25T10:55:25.778Z,98119.16
2022-08-25T10:58:04.517Z,98113.44
2022-08-25T11:00:54.616Z,98118.97
2022-08-25T11:03:52.881Z,98114.66
2022-08-25T11:06:41.601Z,98106.75
2022-08-25T11:09:18.594Z,98111.19
2022-08-25T11:12:19.236Z,98112.78
2022-08-25T11:14:56.217Z,98108.50
2022-08-25T11:17:50.094Z,98116.28
2022-08-25T11:20:38.732Z,98111.03
2022-08-25T11:23:25.819Z,98112.97
2022-08-25T11:26:01.552Z,98099.25
2022-08-25T11:28:57.515Z,98103.97
2022-08-25T11:31:27.676Z,98099.44
2022-08-25T11:33:56.772Z,98090.56
2022-08-25T11:36:40.596Z,98106.28
2022-08-25T11:39:34.661Z,98102.16
2022-08-25T11:42:43.081Z,98111.03
2022-08-25T11:45:34.360Z,98100.56
2022-08-25T11:48:37.111Z,98106.25
2022-08-25T11:51:09.731Z,98100.88
2022-08-25T11:53:43.996Z,98094.84
2022-08-25T11:56:34.693Z,98097.47
2022-08-25T11:59:02.177Z,98094.44
2022-08-25T12:01:40.205Z,98097.00
2022-08-25T12:04:42.172Z,98087.31
2022-08-25T12:07:11.316Z,98086.84
2022-08-25T12:09:55.768Z,98096.06
2022-08-25T12:12:56.270Z,98091.66
2022-08-25T12:15:35.059Z,98104.22
2022-08-25T12:18:36.769Z,98088.00
2022-08-25T12:21:06.141Z,98094.53
2022-08-25T12:23:44.863Z,98088.50
2022-08-25T12:26:38.149Z,98090.69
2022-08-25T12:29:29.455Z,98076.63
2022-08-25T12:32:27.606Z,98080.75
2022-08-25T12:35:29.832Z,98076.44
2022-08-25T12:38:15.934Z,98064.81
2022-08-25T12:40:42.762Z,98060.81
2022-08-25T12:44:30.965Z,98066.28
2022-08-25T12:47:26.991Z,98059.31
2022-08-25T12:50:32.710Z,98075.09
2022-08-25T12:53:24.515Z,98079.31
2022-08-25T12:56:07.746Z,98062.66
2022-08-25T12:59:23.664Z,98066.50
2022-08-25T13:02:33.516Z,98058.97
2022-08-25T13:05:20.771Z,98052.63
2022-08-25T13:08:17.951Z,98056.72
2022-08-25T13:11:13.856Z,98065.25
2022-08-25T13:14:18.725Z,98063.16
2022-08-25T13:16:59.168Z,98061.75
2022-08-25T13:19:35.028Z,98052.19
2022-08-25T13:22:16.065Z,98039.16
2022-08-25T13:24:50.674Z,98037.00
2022-08-25T13:27:27.523Z,98047.28
2022-08-25T13:29:59.951Z,98030.78
2022-08-25T13:32:39.678Z,98036.22
2022-08-25T13:35:28.895Z,98048.25
2022-08-25T13:38:19.526Z,98035.44
2022-08-25T13:40:46.433Z,98040.41
2022-08-25T13:43:15.029Z,98031.16
2022-08-25T13:45:48.188Z,98027.28
2022-08-25T13:48:39.277Z,98025.28
2022-08-25T13:51:22.437Z,98016.91
2022-08-25T13:54:03.116Z,98017.06
2022-08-25T13:56:40.954Z,98003.78
2022-08-25T13:59:25.741Z,98003.88
2022-08-25T14:01:55.971Z,97994.84
2022-08-25T14:04:50.480Z,98003.88
2022-08-25T14:07:21.414Z,97999.13
2022-08-25T14:09:55.023Z,98002.34
2022-08-25T14:12:44.896Z,97995.56
2022-08-25T14:15:17.857Z,98001.84
2022-08-25T14:18:08.727Z,97993.16
2022-08-25T14:20:37.836Z,97997.97
2022-08-25T14:23:16.234Z,97985.19
2022-08-25T14:25:47.436Z,97993.25
2022-08-25T14:28:19.990Z,97987.06
2022-08-25T14:30:55.658Z,97984.13
2022-08-25T14:33:29.684Z,97977.22
2022-08-25T14:36:02.597Z,97980.19
2022-08-25T14:38:29.548Z,97979.19
2022-08-25T14:40:59.180Z,97974.06
2022-08-25T14:43:31.566Z,97977.22
2022-08-25T14:46:08.221Z,97978.72
2022-08-25T14:48:44.983Z,97978.16
2022-08-25T14:51:15.070Z,97969.63
2022-08-25T14:53:43.407Z,97971.53
2022-08-25T14:56:10.639Z,97967.00
2022-08-25T14:58:48.444Z,97956.25
2022-08-25T15:01:28.841Z,97961.69
2022-08-25T15:04:10.379Z,97956.69
2022-08-25T15:06:43.521Z,97958.28
2022-08-25T15:09:16.613Z,97947.44
2022-08-25T15:11:51.392Z,97955.38
2022-08-25T15:14:28.393Z,97960.97
2022-08-25T15:17:00.441Z,97951.47
2022-08-25T15:19:28.831Z,97951.56
2022-08-25T15:21:58.259Z,97951.25
2022-08-25T15:24:27.746Z,97947.59
2022-08-25T15:27:02.050Z,97953.88
2022-08-25T15:29:32.490Z,97949.13
2022-08-25T15:32:00.586Z,97955.09
2022-08-25T15:34:27.826Z,97948.88
2022-08-25T15:36:56.239Z,97962.25
2022-08-25T15:39:22.922Z,97951.13
2022-08-25T15:41:51.638Z,97948.78
2022-08-25T15:44:19.385Z,97953.50
2022-08-25T15:46:49.463Z,97952.56
2022-08-25T15:49:20.912Z,97949.19
2022-08-25T15:51:54.962Z,97950.84
2022-08-25T15:54:24.063Z,97936.00
2022-08-25T15:56:55.335Z,97939.09
2022-08-25T15:59:22.920Z,97927.16
2022-08-25T16:01:54.989Z,97929.25
2022-08-25T16:04:25.273Z,97934.22
2022-08-25T16:06:52.538Z,97930.06
2022-08-25T16:09:22.871Z,97929.16
2022-08-25T16:11:56.506Z,97928.97
2022-08-25T16:14:25.493Z,97927.84
2022-08-25T16:16:58.422Z,97924.38
2022-08-25T16:19:35.718Z,97927.94
2022-08-25T16:22:02.609Z,97924.34
2022-08-25T16:24:33.859Z,97930.25
2022-08-25T16:27:11.483Z,97922.78
2022-08-25T16:29:44.339Z,97929.06
2022-08-25T16:32:13.858Z,97930.66
2022-08-25T16:34:42.487Z,97925.88
2022-08-25T16:37:09.374Z,97921.09
2022-08-25T16:39:37.113Z,97914.03
2022-08-25T16:42:06.703Z,97919.25
2022-08-25T16:44:34.353Z,97909.25
2022-08-25T16:47:01.611Z,97912.97
2022-08-25T16:49:28.298Z,97907.88
2022-08-25T16:51:57.453Z,97905.97
2022-08-25T16:54:45.263Z,97909.50
2022-08-25T16:57:12.704Z,97900.78
2022-08-25T16:59:39.772Z,97916.25
2022-08-25T17:02:06.705Z,97902.81
2022-08-25T17:04:33.471Z,97900.44
2022-08-25T17:07:00.492Z,97901.06
2022-08-25T17:09:29.541Z,97901.50
2022-08-25T17:11:57.316Z,97902.94
2022-08-25T17:14:24.509Z,97909.06
2022-08-25T17:16:54.680Z,97903.28
2022-08-25T17:19:28.243Z,97901.75
2022-08-25T17:21:55.155Z,97902.31
2022-08-25T17:24:29.367Z,97894.41
2022-08-25T17:26:58.528Z,97893.94
2022-08-25T17:29:25.228Z,97891.19
2022-08-25T17:31:53.359Z,97890.28
2022-08-25T17:34:23.382Z,97889.97
2022-08-25T17:36:51.143Z,97892.81
2022-08-25T17:39:19.669Z,97891.94
2022-08-25T17:41:49.190Z,97892.63
2022-08-25T17:44:17.194Z,97905.84
2022-08-25T17:46:47.102Z,97898.09
2022-08-25T17:49:14.906Z,97893.25
2022-08-25T17:51:42.617Z,97890.22
2022-08-25T17:54:09.857Z,97893.97
2022-08-25T17:56:37.911Z,97896.59
2022-08-25T17:59:04.478Z,97892.34
2022-08-25T18:01:34.573Z,97896.06
2022-08-25T18:04:01.570Z,97898.13
2022-08-25T18:06:30.944Z,97887.81
2022-08-25T18:09:01.505Z,97903.69
2022-08-25T18:11:30.178Z,97898.25
2022-08-25T18:13:57.547Z,97897.56
2022-08-25T18:16:25.702Z,97904.22
2022-08-25T18:18:54.712Z,97897.84
2022-08-25T18:21:24.551Z,97896.88
2022-08-25T18:23:51.761Z,97902.50
2022-08-25T18:26:24.743Z,97899.59
2022-08-25T18:28:52.418Z,97889.91
2022-08-25T18:31:19.863Z,97902.72
2022-08-25T18:33:46.865Z,97892.03
2022-08-25T18:36:13.899Z,97907.88
2022-08-25T18:39:00.289Z,97911.78
2022-08-25T18:41:34.239Z,97910.66
2022-08-25T18:44:00.970Z,97904.06
2022-08-25T18:46:27.723Z,97919.25
2022-08-25T18:48:55.593Z,97915.25
2022-08-25T18:51:23.505Z,97913.13
2022-08-25T18:53:51.410Z,97916.91
2022-08-25T18:56:26.116Z,97918.59
2022-08-25T18:58:52.719Z,97917.25
2022-08-25T19:01:20.527Z,97914.19
2022-08-25T19:03:49.125Z,97918.72
2022-08-25T19:06:17.558Z,97917.84
2022-08-25T19:08:46.256Z,97921.53
2022-08-25T19:11:12.981Z,97914.59
2022-08-25T19:13:40.555Z,97920.25
2022-08-25T19:16:20.607Z,97923.66
2022-08-25T19:18:49.076Z,97921.19
2022-08-25T19:21:22.699Z,97917.81
2022-08-25T19:23:50.565Z,97924.28
2022-08-25T19:26:18.234Z,97927.63
2022-08-25T19:28:48.656Z,97925.06
2022-08-25T19:31:24.923Z,97929.81
2022-08-25T19:33:53.611Z,97927.78
2022-08-25T19:36:30.309Z,97925.22
2022-08-25T19:39:00.437Z,97922.34
2022-08-25T19:41:31.337Z,97916.16
2022-08-25T19:43:59.452Z,97927.38
2022-08-25T19:46:35.312Z,97922.09
2022-08-25T19:49:26.256Z,97923.78
2022-08-25T19:51:56.391Z,97919.81
2022-08-25T19:54:31.283Z,97919.31
2022-08-25T19:56:59.263Z,97920.19
2022-08-25T19:59:42.490Z,97915.41
2022-08-25T20:02:16.819Z,97916.41
2022-08-25T20:04:50.244Z,97910.31
2022-08-25T20:07:23.946Z,97911.16
2022-08-25T20:09:53.375Z,97901.31
2022-08-25T20:12:24.326Z,97900.69
2022-08-25T20:14:53.380Z,97920.34
2022-08-25T20:17:23.627Z,97916.22
2022-08-25T20:20:09.749Z,97920.56
2022-08-25T20:22:38.005Z,97927.06
2022-08-25T20:25:17.741Z,97917.38
2022-08-25T20:30:29.867Z,97925.78
2022-08-25T20:32:58.163Z,97919.34
2022-08-25T20:35:27.528Z,97935.97
2022-08-25T20:37:58.112Z,97933.88
2022-08-25T20:40:27.751Z,97938.97
2022-08-25T20:42:58.472Z,97926.66
2022-08-25T20:45:25.851Z,97938.19
2022-08-25T20:47:52.955Z,97940.31
2022-08-25T20:50:20.378Z,97940.91
2022-08-25T20:52:48.512Z,97933.47
2022-08-25T20:55:15.500Z,97944.59
2022-08-25T20:57:46.144Z,97940.72
2022-08-25T21:00:14.276Z,97933.91
2022-08-25T21:02:42.641Z,97933.59
2022-08-25T21:05:09.548Z,97938.50
2022-08-25T21:07:36.216Z,97948.13
2022-08-25T21:10:14.533Z,97960.66
2022-08-25T21:12:42.330Z,97961.66
2022-08-25T21:15:10.509Z,97955.25
2022-08-25T21:17:37.496Z,97952.03
2022-08-25T21:20:24.688Z,97953.06
2022-08-25T21:22:53.320Z,97950.75
2022-08-25T21:25:20.849Z,97961.66
2022-08-25T21:27:47.927Z,97957.09
2022-08-25T21:30:14.898Z,97956.09
2022-08-25T21:32:53.147Z,97953.75
2022-08-25T21:35:23.021Z,97959.31
2022-08-25T21:37:53.111Z,97959.63
2022-08-25T21:40:21.771Z,97958.56
2022-08-25T21:42:49.048Z,97954.09
2022-08-25T21:45:15.825Z,97947.44
2022-08-25T21:47:42.568Z,97953.63
2022-08-25T21:50:11.813Z,97953.69
2022-08-25T21:52:39.099Z,97943.28
2022-08-25T21:55:08.335Z,97942.59
2022-08-25T21:57:43.850Z,97948.50
2022-08-25T22:00:12.673Z,97953.13
2022-08-25T22:02:39.357Z,97957.53
2022-08-25T22:05:09.294Z,97953.84
2022-08-25T22:07:41.759Z,97952.84
2022-08-25T22:10:16.707Z,97955.47
2022-08-25T22:12:45.171Z,97950.06
2022-08-25T22:15:15.513Z,97950.88
2022-08-25T22:17:42.477Z,97960.22
2022-08-25T22:20:10.255Z,97952.44
2022-08-25T22:22:37.012Z,97953.22
2022-08-25T22:25:05.142Z,97951.06
2022-08-25T22:27:32.880Z,97943.66
2022-08-25T22:30:00.718Z,97943.63
2022-08-25T22:32:27.530Z,97944.69
2022-08-25T22:34:54.194Z,97944.22
2022-08-25T22:37:20.805Z,97945.91
2022-08-25T22:39:48.636Z,97954.97
2022-08-25T22:42:15.675Z,97953.97
2022-08-25T22:44:42.585Z,97961.50
2022-08-25T22:47:10.541Z,97955.09
2022-08-25T22:49:39.286Z,97951.44
2022-08-25T22:52:07.157Z,97957.88
2022-08-25T22:54:36.733Z,97952.44
2022-08-25T22:57:06.738Z,97962.59
2022-08-25T22:59:34.300Z,97962.59
2022-08-25T23:02:01.158Z,97955.06
2022-08-25T23:04:27.866Z,97955.59
2022-08-25T23:06:54.578Z,97952.09
2022-08-25T23:09:21.347Z,97950.22
2022-08-25T23:11:48.397Z,97956.16
2022-08-25T23:14:19.050Z,97948.13
2022-08-25T23:16:45.955Z,97944.69
2022-08-25T23:19:31.826Z,97946.88
2022-08-25T23:22:16.269Z,97940.25
2022-08-25T23:24:51.618Z,97941.88
2022-08-25T23:27:20.968Z,97944.00
2022-08-25T23:29:50.035Z,97933.84
2022-08-25T23:32:18.570Z,97939.22
2022-08-25T23:34:46.570Z,97929.84
2022-08-25T23:37:15.035Z,97938.69
2022-08-25T23:39:45.375Z,97923.75
2022-08-25T23:42:12.118Z,97923.19
2022-08-25T23:44:38.697Z,97923.44
2022-08-25T23:47:07.005Z,97914.13
2022-08-25T23:49:33.913Z,97917.28
2022-08-25T23:52:01.231Z,97912.50
2022-08-25T23:54:31.625Z,97910.34
2022-08-25T23:56:59.332Z,97907.22
2022-08-25T23:59:26.017Z,97914.81
